Time;durP1;ratioP1;P1;durP2;ratioP2;P2;SDS_P1;SDS_P2;PMS_P1;PMS_P2;Temp;Humidity;BMP_temperature;BMP_pressure;BME280_temperature;BME280_humidity;BME280_pressure;Samples;Min_cycle;Max_cycle;Signal;HPM_P1;HPM_P2
2023/12/01 00:01:10;;;;;;;127.38;35.97;;;;;;;3.71;100.00;99276.41;8245209;28;20197;-59
2023/12/01 00:05:10;;;;;;;135.43;37.45;;;;;;;3.68;100.00;99286.47;8239624;28;20801;-60
2023/12/01 00:09:11;;;;;;;129.13;38.47;;;;;;;3.69;100.00;99289.03;8242966;28;20099;-59
2023/12/01 00:13:11;;;;;;;129.73;35.05;;;;;;;3.66;100.00;99294.63;8244307;28;20064;-60
2023/12/01 00:17:12;;;;;;;123.70;35.95;;;;;;;3.84;100.00;99303.78;8282497;28;21570;-59
2023/12/01 00:21:12;;;;;;;114.25;36.33;;;;;;;3.70;100.00;99298.75;8278944;28;20045;-60
2023/12/01 00:25:13;;;;;;;127.00;36.47;;;;;;;3.75;100.00;99303.69;8282250;28;20138;-60
2023/12/01 00:29:13;;;;;;;116.03;34.95;;;;;;;3.73;100.00;99295.78;8282556;28;20032;-60
2023/12/01 00:33:14;;;;;;;115.93;35.80;;;;;;;3.79;100.00;99299.81;8282382;28;20128;-59
2023/12/01 00:37:16;;;;;;;115.63;35.95;;;;;;;3.72;100.00;99296.78;8284914;28;20743;-63
2023/12/01 00:41:17;;;;;;;113.90;34.55;;;;;;;3.65;100.00;99287.59;8284141;28;20123;-61
2023/12/01 00:45:17;;;;;;;121.72;35.53;;;;;;;3.68;100.00;99295.34;8282701;28;20292;-60
2023/12/01 00:49:18;;;;;;;118.93;36.20;;;;;;;3.66;100.00;99293.78;8336724;28;20045;-61
2023/12/01 00:53:18;;;;;;;116.40;34.25;;;;;;;3.62;100.00;99290.50;8340128;28;20103;-62
2023/12/01 00:57:19;;;;;;;115.72;34.70;;;;;;;3.52;100.00;99286.91;8337592;28;20118;-63
2023/12/01 01:01:19;;;;;;;109.75;34.03;;;;;;;3.56;100.00;99304.38;8341385;28;20545;-57
2023/12/01 01:05:20;;;;;;;123.55;36.40;;;;;;;3.61;100.00;99304.84;8334777;28;20394;-57
2023/12/01 01:09:21;;;;;;;113.85;34.63;;;;;;;3.51;100.00;99303.91;8336775;28;20029;-57
2023/12/01 01:13:21;;;;;;;112.03;34.92;;;;;;;3.48;100.00;99306.81;8335120;28;20116;-58
2023/12/01 01:17:22;;;;;;;103.75;32.75;;;;;;;3.51;100.00;99311.91;8338335;28;20448;-57
2023/12/01 01:21:23;;;;;;;105.80;33.50;;;;;;;3.41;100.00;99308.31;8287764;28;20056;-60
2023/12/01 01:25:23;;;;;;;113.30;34.08;;;;;;;3.46;100.00;99307.94;8285340;28;20208;-60
2023/12/01 01:29:24;;;;;;;97.10;32.05;;;;;;;3.38;100.00;99313.91;8284094;28;20028;-60
2023/12/01 01:33:24;;;;;;;94.68;31.33;;;;;;;3.38;100.00;99321.06;8283402;28;20033;-60
2023/12/01 01:37:25;;;;;;;106.55;32.35;;;;;;;3.39;100.00;99323.59;8287701;28;20300;-60
2023/12/01 01:41:25;;;;;;;95.63;32.30;;;;;;;3.36;100.00;99313.16;8289444;28;20037;-59
2023/12/01 01:45:25;;;;;;;98.45;30.85;;;;;;;3.38;100.00;99316.56;8287621;28;20163;-58
2023/12/01 01:49:26;;;;;;;95.95;30.05;;;;;;;3.34;99.87;99323.16;8336960;28;20037;-60
2023/12/01 01:53:27;;;;;;;95.82;31.40;;;;;;;3.34;100.00;99330.28;8295643;28;20048;-64
2023/12/01 01:57:30;;;;;;;95.03;30.60;;;;;;;3.36;99.91;99333.72;8320265;28;20041;-57
2023/12/01 02:01:31;;;;;;;96.53;31.67;;;;;;;3.37;99.34;99335.38;8341665;28;20037;-56
2023/12/01 02:05:34;;;;;;;98.32;31.45;;;;;;;3.38;98.92;99343.28;8346154;28;20168;-57
2023/12/01 02:09:34;;;;;;;101.10;34.00;;;;;;;3.39;98.46;99334.28;8286035;28;20032;-59
2023/12/01 02:13:35;;;;;;;101.70;32.70;;;;;;;3.40;99.57;99336.00;8292115;28;20090;-59
2023/12/01 02:17:37;;;;;;;116.45;35.13;;;;;;;3.39;99.51;99326.28;8279775;28;20068;-58
2023/12/01 02:21:42;;;;;;;112.32;34.70;;;;;;;3.42;99.54;99334.03;8287994;28;20136;-59
2023/12/01 02:25:44;;;;;;;108.55;32.28;;;;;;;3.41;100.00;99337.69;8280269;28;20032;-58
2023/12/01 02:29:45;;;;;;;101.57;32.20;;;;;;;3.37;99.80;99330.91;8286004;28;20045;-59
2023/12/01 02:33:46;;;;;;;97.60;30.42;;;;;;;3.35;99.56;99327.50;8338821;28;20044;-57
2023/12/01 02:37:46;;;;;;;94.43;32.17;;;;;;;3.40;99.88;99330.66;8314311;28;20064;-59
2023/12/01 02:41:48;;;;;;;104.82;33.63;;;;;;;3.42;100.00;99333.22;8290835;28;20576;-58
2023/12/01 02:45:49;;;;;;;117.60;34.60;;;;;;;3.39;100.00;99339.63;8339392;28;20037;-56
2023/12/01 02:49:49;;;;;;;111.82;35.55;;;;;;;3.38;100.00;99343.28;8288516;28;20526;-59
2023/12/01 02:53:50;;;;;;;112.35;33.90;;;;;;;3.43;100.00;99348.25;8259069;28;20391;-58
2023/12/01 02:57:50;;;;;;;103.78;34.88;;;;;;;3.36;99.54;99345.22;8239542;28;20080;-59
2023/12/01 03:01:51;;;;;;;105.80;34.28;;;;;;;3.35;99.39;99348.88;8246818;28;20037;-60
2023/12/01 03:05:51;;;;;;;99.18;32.97;;;;;;;3.31;98.46;99341.22;8246594;28;20102;-60
2023/12/01 03:09:52;;;;;;;105.03;32.50;;;;;;;3.35;97.61;99354.22;8244118;28;20035;-59
2023/12/01 03:13:52;;;;;;;100.25;33.65;;;;;;;3.33;97.25;99353.47;8245402;28;20034;-59
2023/12/01 03:17:53;;;;;;;103.95;31.48;;;;;;;3.25;95.84;99353.25;8283854;28;20231;-59
2023/12/01 03:21:53;;;;;;;90.15;31.50;;;;;;;3.25;94.95;99363.94;8315215;28;20033;-57
2023/12/01 03:25:54;;;;;;;83.35;28.30;;;;;;;3.30;93.26;99360.91;8339907;28;20404;-57
2023/12/01 03:29:55;;;;;;;89.10;28.80;;;;;;;3.37;93.25;99357.63;8342706;28;20037;-58
2023/12/01 03:33:55;;;;;;;93.40;29.05;;;;;;;3.46;93.43;99362.22;8341611;28;20603;-57
2023/12/01 03:37:57;;;;;;;87.82;29.70;;;;;;;3.49;93.77;99372.66;8340800;28;20079;-57
2023/12/01 03:41:57;;;;;;;92.22;30.48;;;;;;;3.53;93.75;99355.38;8343148;28;20062;-61
2023/12/01 03:45:58;;;;;;;82.20;29.13;;;;;;;3.58;92.17;99371.06;8341414;28;20041;-62
2023/12/01 03:49:58;;;;;;;65.70;26.38;;;;;;;3.57;90.73;99370.19;8341002;28;20083;-60
2023/12/01 03:53:59;;;;;;;72.90;26.98;;;;;;;3.59;90.51;99368.25;8338933;28;20060;-60
2023/12/01 03:58:02;;;;;;;78.82;27.33;;;;;;;3.59;89.20;99368.25;8339750;28;20038;-60
2023/12/01 04:02:04;;;;;;;67.50;24.98;;;;;;;3.60;89.49;99369.94;8342058;28;20037;-57
2023/12/01 04:06:05;;;;;;;71.53;26.35;;;;;;;3.57;89.64;99370.19;8341245;28;20041;-57
2023/12/01 04:10:10;;;;;;;70.90;27.05;;;;;;;3.54;89.74;99381.13;8362776;28;20068;-57
2023/12/01 04:14:11;;;;;;;72.07;27.63;;;;;;;3.59;90.45;99388.75;8339738;28;20040;-60
2023/12/01 04:18:12;;;;;;;73.93;27.77;;;;;;;3.59;90.94;99386.09;8277398;28;20037;-58
2023/12/01 04:22:12;;;;;;;81.72;28.63;;;;;;;3.60;91.52;99388.63;8283043;28;20400;-57
2023/12/01 04:26:12;;;;;;;74.30;27.13;;;;;;;3.56;91.01;99397.88;8257330;28;20219;-58
2023/12/01 04:30:15;;;;;;;83.60;28.73;;;;;;;3.55;89.78;99398.88;8241205;28;20587;-57
2023/12/01 04:34:20;;;;;;;76.60;27.38;;;;;;;3.51;88.37;99402.75;8236952;28;20184;-58
2023/12/01 04:38:20;;;;;;;;;;;;;;;3.52;88.36;99406.28;8240963;28;20171;-59
2023/12/01 04:42:20;;;;;;;78.82;28.75;;;;;;;3.52;88.06;99409.81;8242458;28;19917;-57
2023/12/01 04:46:21;;;;;;;77.82;28.50;;;;;;;3.52;88.30;99412.47;8284690;28;20612;-57
2023/12/01 04:50:25;;;;;;;72.93;27.27;;;;;;;3.48;87.94;99410.19;8283549;28;20041;-58
2023/12/01 04:54:26;;;;;;;76.32;29.60;;;;;;;3.53;88.50;99408.81;8304916;28;20048;-60
2023/12/01 04:58:27;;;;;;;82.13;29.65;;;;;;;3.48;87.63;99413.66;8336886;28;20472;-60
2023/12/01 05:02:27;;;;;;;62.13;25.35;;;;;;;3.42;85.86;99414.16;8332280;28;20056;-60
2023/12/01 05:06:28;;;;;;;62.40;25.35;;;;;;;3.46;84.19;99409.44;8345351;28;20552;-60
2023/12/01 05:10:30;;;;;;;63.72;24.63;;;;;;;3.49;84.04;99407.38;8339507;28;20544;-61
2023/12/01 05:14:30;;;;;;;71.18;25.40;;;;;;;3.49;83.80;99409.19;8344608;28;20036;-60
2023/12/01 05:18:31;;;;;;;63.47;24.88;;;;;;;3.49;84.62;99420.75;8351500;28;20037;-60
2023/12/01 05:22:31;;;;;;;64.78;27.38;;;;;;;3.51;84.24;99426.78;8344522;28;20037;-60
2023/12/01 05:26:31;;;;;;;77.30;26.60;;;;;;;3.54;84.89;99423.88;8345462;28;20044;-60
2023/12/01 05:30:35;;;;;;;72.80;26.23;;;;;;;3.50;84.83;99422.44;8348332;28;20045;-60
2023/12/01 05:34:35;;;;;;;76.70;26.90;;;;;;;3.53;85.35;99432.88;8341105;28;20048;-61
2023/12/01 05:38:35;;;;;;;71.05;26.45;;;;;;;3.53;84.77;99430.19;8343764;28;20562;-60
2023/12/01 05:42:36;;;;;;;70.68;28.38;;;;;;;3.58;85.11;99435.16;8347669;28;20100;-60
2023/12/01 05:46:37;;;;;;;67.40;25.88;;;;;;;3.57;86.63;99442.31;8344733;28;20034;-62
2023/12/01 05:50:38;;;;;;;64.60;25.50;;;;;;;3.46;88.23;99463.72;8342113;28;20072;-61
2023/12/01 05:54:38;;;;;;;63.42;25.08;;;;;;;3.40;89.86;99442.84;8336322;28;20345;-57
2023/12/01 05:58:39;;;;;;;69.75;26.73;;;;;;;3.37;90.56;99459.09;8283577;28;20087;-56
2023/12/01 06:02:40;;;;;;;70.95;26.48;;;;;;;3.37;91.24;99459.09;8318901;28;20178;-58
2023/12/01 06:06:40;;;;;;;69.30;25.05;;;;;;;3.35;91.75;99469.06;8295660;28;20037;-60
2023/12/01 06:10:41;;;;;;;73.13;27.13;;;;;;;3.35;91.29;99468.19;8341285;28;20079;-60
2023/12/01 06:14:41;;;;;;;68.05;25.73;;;;;;;3.32;92.04;99471.09;8342191;28;20045;-59
2023/12/01 06:18:42;;;;;;;75.20;26.65;;;;;;;3.34;92.04;99475.38;8344627;28;20067;-60
2023/12/01 06:22:45;;;;;;;70.93;27.80;;;;;;;3.35;92.01;99477.06;8338992;28;20132;-59
2023/12/01 06:26:45;;;;;;;70.97;26.77;;;;;;;3.35;92.43;99477.06;8341881;28;20037;-59
2023/12/01 06:30:46;;;;;;;69.03;26.73;;;;;;;3.30;92.50;99487.25;8346341;28;20094;-60
2023/12/01 06:34:46;;;;;;;70.25;26.52;;;;;;;3.23;91.63;99485.22;8335293;28;20073;-61
2023/12/01 06:38:47;;;;;;;64.07;25.70;;;;;;;3.20;91.75;99491.63;8341892;28;20088;-58
2023/12/01 06:42:49;;;;;;;75.32;26.27;;;;;;;3.14;91.48;99500.09;8341138;28;20033;-60
2023/12/01 06:46:50;;;;;;;75.28;26.55;;;;;;;3.13;91.20;99506.41;8321349;28;20037;-58
2023/12/01 06:50:50;;;;;;;67.82;24.92;;;;;;;3.16;91.82;99508.84;8342500;28;20040;-60
2023/12/01 06:54:50;;;;;;;70.95;26.70;;;;;;;3.16;91.41;99508.84;8344028;28;20037;-60
2023/12/01 06:58:51;;;;;;;78.82;27.33;;;;;;;3.16;90.89;99514.19;8335010;28;20037;-60
2023/12/01 07:02:51;;;;;;;76.05;28.17;;;;;;;3.14;90.84;99510.78;8343085;28;20034;-60
2023/12/01 07:06:53;;;;;;;75.97;27.48;;;;;;;3.14;90.38;99509.94;8343600;28;20044;-59
2023/12/01 07:10:54;;;;;;;78.45;28.52;;;;;;;3.16;90.37;99511.53;8342819;28;20044;-60
2023/12/01 07:14:54;;;;;;;72.68;26.35;;;;;;;3.18;89.70;99516.75;8340865;28;20037;-60
2023/12/01 07:18:55;;;;;;;63.42;26.67;;;;;;;3.15;89.45;99522.31;8340375;28;20341;-59
2023/12/01 07:22:55;;;;;;;68.30;27.55;;;;;;;3.14;89.29;99532.16;8334582;28;20029;-60
2023/12/01 07:26:55;;;;;;;71.85;26.83;;;;;;;3.16;89.37;99530.22;8334040;28;20120;-60
2023/12/01 07:30:56;;;;;;;69.43;26.40;;;;;;;3.17;89.62;99531.06;8338434;28;20038;-60
2023/12/01 07:34:56;;;;;;;67.45;26.85;;;;;;;3.13;89.60;99530.44;8335501;28;20045;-60
2023/12/01 07:38:57;;;;;;;63.38;23.25;;;;;;;3.12;89.64;99528.75;8336639;28;20400;-60
2023/12/01 07:42:57;;;;;;;64.15;24.17;;;;;;;3.13;89.42;99524.25;8339183;28;20099;-60
2023/12/01 07:46:57;;;;;;;64.35;25.25;;;;;;;3.16;88.76;99540.03;8337358;28;20044;-60
2023/12/01 07:50:58;;;;;;;61.85;24.33;;;;;;;3.18;88.20;99540.78;8337006;28;20438;-60
2023/12/01 07:54:59;;;;;;;66.65;25.25;;;;;;;3.23;89.12;99547.44;8339436;28;20494;-59
2023/12/01 07:58:59;;;;;;;65.38;24.60;;;;;;;3.21;88.99;99538.72;8332449;28;20041;-59
2023/12/01 08:03:00;;;;;;;64.53;25.38;;;;;;;3.13;89.18;99558.97;8337193;28;20067;-64
2023/12/01 08:07:00;;;;;;;66.22;25.73;;;;;;;3.14;88.55;99560.69;8337327;28;20407;-57
2023/12/01 08:11:04;;;;;;;71.68;25.20;;;;;;;3.18;89.04;99560.34;8338230;28;20552;-58
2023/12/01 08:15:04;;;;;;;54.83;21.85;;;;;;;3.15;87.93;99565.03;8332418;28;20045;-58
2023/12/01 08:19:06;;;;;;;49.60;19.55;;;;;;;3.13;86.26;99567.81;8336045;28;20051;-57
2023/12/01 08:23:09;;;;;;;50.30;20.77;;;;;;;3.17;86.88;99563.13;8331844;28;20040;-56
2023/12/01 08:27:10;;;;;;;45.40;18.65;;;;;;;3.17;86.94;99563.13;8335099;28;20582;-57
2023/12/01 08:31:11;;;;;;;44.72;19.52;;;;;;;3.20;86.74;99563.72;8331998;28;20479;-57
2023/12/01 08:35:11;;;;;;;39.28;18.58;;;;;;;3.22;86.92;99566.25;8328687;28;20042;-57
2023/12/01 08:39:12;;;;;;;37.63;17.70;;;;;;;3.22;86.74;99564.47;8332188;28;20033;-57
2023/12/01 08:43:13;;;;;;;42.30;18.17;;;;;;;3.23;86.38;99571.50;8334988;28;20051;-56
2023/12/01 08:47:15;;;;;;;40.88;17.25;;;;;;;3.23;86.38;99574.16;8333415;28;20053;-56
2023/12/01 08:51:16;;;;;;;42.90;16.00;;;;;;;3.27;86.36;99575.63;8336579;28;20053;-57
2023/12/01 08:55:16;;;;;;;38.88;17.02;;;;;;;3.36;85.93;99580.25;8341953;28;20042;-60
2023/12/01 08:59:18;;;;;;;38.10;16.63;;;;;;;3.30;85.38;99580.72;8343683;28;20040;-59
2023/12/01 09:03:18;;;;;;;38.15;16.05;;;;;;;3.30;85.68;99580.72;8341827;28;20037;-59
2023/12/01 09:07:19;;;;;;;49.67;15.80;;;;;;;3.32;85.79;99589.47;8344508;28;20037;-57
2023/12/01 09:11:20;;;;;;;35.38;15.50;;;;;;;3.35;85.71;99583.91;8340127;28;20476;-56
2023/12/01 09:15:20;;;;;;;33.15;14.15;;;;;;;3.40;86.29;99589.75;8344487;28;20402;-57
2023/12/01 09:19:21;;;;;;;38.92;15.15;;;;;;;3.42;85.88;99598.47;8348923;28;20041;-59
2023/12/01 09:23:21;;;;;;;30.40;12.30;;;;;;;3.44;84.94;99599.22;8341371;28;20034;-56
2023/12/01 09:27:22;;;;;;;20.08;9.50;;;;;;;3.38;82.80;99598.81;8343143;28;20526;-57
2023/12/01 09:31:23;;;;;;;22.58;9.90;;;;;;;3.33;81.95;99599.19;8340628;28;20038;-56
2023/12/01 09:35:25;;;;;;;21.17;11.02;;;;;;;3.30;81.81;99607.44;8336927;28;20210;-59
2023/12/01 09:39:26;;;;;;;26.77;11.73;;;;;;;3.34;82.85;99602.72;8341549;28;20038;-60
2023/12/01 09:43:29;;;;;;;22.80;10.10;;;;;;;3.24;83.41;99618.59;8335916;28;20042;-56
2023/12/01 09:47:32;;;;;;;22.67;11.23;;;;;;;3.27;84.93;99621.00;8332863;28;20037;-57
2023/12/01 09:51:36;;;;;;;23.70;11.60;;;;;;;3.23;84.36;99624.91;8336463;28;20647;-57
2023/12/01 09:55:36;;;;;;;30.15;12.38;;;;;;;3.06;84.67;99633.34;8336458;28;20052;-59
2023/12/01 09:59:37;;;;;;;23.50;11.30;;;;;;;3.07;84.77;99632.38;8339673;28;20060;-60
2023/12/01 10:03:38;;;;;;;24.95;11.82;;;;;;;3.02;84.38;99623.00;8336764;28;20436;-60
2023/12/01 10:07:38;;;;;;;27.45;11.13;;;;;;;3.00;84.41;99631.13;8339825;28;20474;-60
2023/12/01 10:11:39;;;;;;;20.63;9.80;;;;;;;2.97;84.13;99626.03;8332573;28;20084;-60
2023/12/01 10:15:40;;;;;;;19.60;8.40;;;;;;;2.97;83.72;99628.69;8334483;28;20538;-60
2023/12/01 10:19:48;;;;;;;15.80;7.65;;;;;;;2.95;82.11;99633.28;8339031;28;20044;-60
2023/12/01 10:23:50;;;;;;;14.98;7.32;;;;;;;3.02;81.33;99629.19;8340188;28;20033;-57
2023/12/01 10:27:55;;;;;;;14.38;6.82;;;;;;;3.01;79.85;99630.16;8338831;28;20091;-57
2023/12/01 10:32:02;;;;;;;15.20;7.18;;;;;;;3.10;79.95;99634.81;8329251;28;20041;-57
2023/12/01 10:36:05;;;;;;;14.45;7.20;;;;;;;3.12;79.70;99635.56;8339144;28;20037;-57
2023/12/01 10:40:08;;;;;;;15.82;7.22;;;;;;;3.12;80.37;99635.56;8339001;28;20090;-57
2023/12/01 10:44:13;;;;;;;12.43;6.00;;;;;;;3.11;79.64;99647.19;8340796;28;20041;-56
2023/12/01 10:48:14;;;;;;;10.05;5.63;;;;;;;3.11;79.08;99633.84;8340277;28;20518;-59
2023/12/01 10:52:15;;;;;;;13.13;5.75;;;;;;;3.13;78.92;99626.56;8333654;28;20128;-57
2023/12/01 10:56:19;;;;;;;10.73;5.57;;;;;;;3.13;79.40;99610.56;8338511;28;20045;-56
2023/12/01 11:00:29;;;;;;;14.25;6.93;;;;;;;3.08;78.95;99607.38;8334165;28;20037;-57
2023/12/01 11:04:33;;;;;;;11.65;5.68;;;;;;;3.17;78.84;99606.66;8334424;28;20400;-57
2023/12/01 11:13:15;;;;;;;12.18;6.38;;;;;;;3.24;78.78;99612.41;8333599;27;20386;-56
2023/12/01 11:17:16;;;;;;;13.50;7.00;;;;;;;3.23;78.45;99605.38;8341710;28;20562;-55
2023/12/01 11:21:18;;;;;;;8.50;5.25;;;;;;;3.18;78.11;99611.06;8331222;28;20029;-58
2023/12/01 11:25:41;;;;;;;13.63;6.05;;;;;;;3.28;79.50;99613.88;8330658;28;20041;-55
2023/12/01 11:30:07;;;;;;;12.55;6.63;;;;;;;3.24;78.67;99615.94;8331284;28;20160;-55
2023/12/01 11:34:12;;;;;;;10.57;6.63;;;;;;;3.16;78.31;99618.31;8331962;28;20049;-56
2023/12/01 11:38:13;;;;;;;9.45;5.75;;;;;;;3.22;78.55;99620.53;8330732;28;22794;-56
2023/12/01 11:42:16;;;;;;;12.18;7.15;;;;;;;3.22;79.65;99609.00;8332236;28;20147;-56
2023/12/01 11:46:16;;;;;;;19.67;7.97;;;;;;;3.15;79.85;99608.63;8330626;28;20037;-58
2023/12/01 11:50:17;;;;;;;17.50;9.10;;;;;;;3.19;81.34;99604.75;8330855;28;20061;-58
2023/12/01 11:54:17;;;;;;;16.90;9.25;;;;;;;3.21;81.23;99624.19;8329459;28;20495;-59
2023/12/01 11:58:18;;;;;;;17.92;9.35;;;;;;;3.16;79.24;99618.31;8327385;28;20041;-61
2023/12/01 12:02:33;;;;;;;20.05;10.30;;;;;;;3.21;79.51;99618.84;8332448;28;20044;-60
2023/12/01 12:06:34;;;;;;;20.52;10.23;;;;;;;3.28;80.25;99627.22;8329873;28;20218;-58
2023/12/01 12:10:34;;;;;;;15.68;7.88;;;;;;;3.24;78.44;99634.63;8331686;28;20041;-58
2023/12/01 12:14:37;;;;;;;20.65;9.50;;;;;;;3.31;78.29;99625.19;8330595;28;20041;-58
2023/12/01 12:18:38;;;;;;;19.50;9.35;;;;;;;3.25;77.94;99620.31;8329721;28;20030;-57
2023/12/01 12:22:39;;;;;;;18.00;8.63;;;;;;;3.28;78.19;99628.06;8319018;28;20033;-57
2023/12/01 12:26:40;;;;;;;20.20;10.55;;;;;;;3.33;79.31;99627.72;8306749;28;20037;-56
2023/12/01 12:30:40;;;;;;;18.58;9.65;;;;;;;3.27;78.75;99630.88;8305885;28;20132;-58
2023/12/01 12:34:41;;;;;;;20.63;9.40;;;;;;;3.28;77.94;99630.75;8307389;28;20046;-58
2023/12/01 12:38:42;;;;;;;20.77;9.93;;;;;;;3.26;79.06;99637.19;8307865;28;20037;-57
2023/12/01 12:42:59;;;;;;;25.10;10.27;;;;;;;3.33;78.95;99638.41;8304663;28;20542;-57
2023/12/01 12:47:02;;;;;;;19.10;8.10;;;;;;;3.32;77.46;99642.91;8311329;28;20427;-58
2023/12/01 12:51:04;;;;;;;14.97;8.87;;;;;;;3.32;77.64;99648.22;8304897;28;20092;-57
2023/12/01 12:55:05;;;;;;;16.25;8.25;;;;;;;3.32;77.27;99642.03;8307367;28;20049;-57
2023/12/01 12:59:06;;;;;;;17.17;8.90;;;;;;;3.35;77.65;99645.34;8304263;28;20044;-59
2023/12/01 13:03:06;;;;;;;19.17;9.63;;;;;;;3.33;78.20;99651.78;8303444;28;20046;-59
2023/12/01 13:07:07;;;;;;;15.65;8.23;;;;;;;3.33;77.13;99652.59;8308953;28;20078;-57
2023/12/01 13:11:09;;;;;;;17.92;7.93;;;;;;;3.36;78.15;99648.88;8305938;28;20412;-57
2023/12/01 13:15:10;;;;;;;16.60;8.25;;;;;;;3.29;78.97;99658.28;8306621;28;20053;-59
2023/12/01 13:19:11;;;;;;;13.80;8.10;;;;;;;3.25;79.24;99656.81;8306173;28;20602;-58
2023/12/01 13:23:11;;;;;;;15.15;7.82;;;;;;;3.15;79.53;99651.34;8305834;28;20037;-56
2023/12/01 13:27:12;;;;;;;15.57;8.02;;;;;;;3.18;79.73;99639.56;8300383;28;20044;-57
2023/12/01 13:31:13;;;;;;;16.13;8.23;;;;;;;3.22;80.11;99631.22;8301717;28;20125;-56
2023/12/01 13:35:13;;;;;;;17.90;8.95;;;;;;;3.26;80.09;99630.00;8299811;28;20076;-59
2023/12/01 13:39:16;;;;;;;16.30;8.63;;;;;;;3.33;80.08;99633.91;8302505;28;20049;-58
2023/12/01 13:43:16;;;;;;;17.05;8.20;;;;;;;3.39;80.15;99632.59;8303742;28;20042;-57
2023/12/01 13:47:18;;;;;;;15.38;8.48;;;;;;;3.38;77.88;99626.41;8301395;28;20044;-57
2023/12/01 13:51:19;;;;;;;17.75;8.60;;;;;;;3.36;78.00;99633.66;8299012;28;20049;-58
2023/12/01 13:55:20;;;;;;;16.85;8.50;;;;;;;3.35;77.71;99625.78;8302789;28;20045;-56
2023/12/01 13:59:21;;;;;;;15.57;8.27;;;;;;;3.38;78.03;99625.53;8304852;28;20037;-57
2023/12/01 14:03:22;;;;;;;13.32;8.30;;;;;;;3.37;76.71;99624.72;8303638;28;20507;-55
2023/12/01 14:07:22;;;;;;;13.88;8.63;;;;;;;3.35;77.31;99613.28;8303100;28;20144;-56
2023/12/01 14:11:23;;;;;;;17.77;8.80;;;;;;;3.36;77.72;99616.81;8305198;28;20072;-56
2023/12/01 14:15:23;;;;;;;15.20;7.97;;;;;;;3.28;77.09;99620.06;8304880;28;20443;-59
2023/12/01 14:19:24;;;;;;;16.13;8.32;;;;;;;3.31;77.04;99624.31;8305737;28;20049;-56
2023/12/01 14:23:25;;;;;;;17.50;8.98;;;;;;;3.25;76.52;99624.78;8303186;28;20041;-58
2023/12/01 14:27:25;;;;;;;14.90;7.80;;;;;;;3.29;76.65;99627.09;8300034;28;20125;-58
2023/12/01 14:31:26;;;;;;;18.58;8.15;;;;;;;3.29;76.99;99631.56;8303353;28;20069;-57
2023/12/01 14:35:27;;;;;;;16.40;8.90;;;;;;;3.25;77.71;99624.78;8301011;28;20029;-58
2023/12/01 14:39:27;;;;;;;18.20;9.40;;;;;;;3.22;77.79;99639.22;8302485;28;20041;-58
2023/12/01 14:43:28;;;;;;;20.55;10.00;;;;;;;3.18;78.17;99640.44;8300375;28;20495;-57
2023/12/01 14:47:29;;;;;;;14.68;8.60;;;;;;;3.23;78.51;99643.59;8308993;28;20038;-60
2023/12/01 14:51:29;;;;;;;18.80;9.40;;;;;;;3.29;78.62;99644.94;8281427;28;20111;-57
2023/12/01 14:55:29;;;;;;;17.52;9.63;;;;;;;3.24;78.23;99639.97;8279243;28;20064;-56
2023/12/01 14:59:30;;;;;;;21.98;9.73;;;;;;;3.26;77.41;99645.19;8314400;28;20049;-57
2023/12/01 15:03:31;;;;;;;17.00;9.48;;;;;;;3.28;77.76;99652.13;8296526;28;20057;-59
2023/12/01 15:07:31;;;;;;;20.52;9.88;;;;;;;3.26;78.09;99654.03;8301767;28;20491;-59
2023/12/01 15:11:31;;;;;;;21.50;10.30;;;;;;;3.28;78.72;99644.09;8293656;28;20559;-59
2023/12/01 15:15:33;;;;;;;23.67;11.70;;;;;;;3.19;76.67;99650.13;8295432;28;20147;-57
2023/12/01 15:19:33;;;;;;;32.22;13.18;;;;;;;3.13;75.95;99653.28;8278672;28;20844;-59
2023/12/01 15:23:34;;;;;;;25.83;11.85;;;;;;;3.12;76.33;99656.91;8297167;28;20682;-59
2023/12/01 15:27:35;;;;;;;28.25;11.20;;;;;;;3.12;76.11;99654.25;8285271;28;20056;-56
2023/12/01 15:31:35;;;;;;;28.05;12.15;;;;;;;3.14;76.21;99654.97;8274348;28;20038;-57
2023/12/01 15:35:35;;;;;;;25.42;12.52;;;;;;;3.12;76.18;99654.25;8262049;28;20121;-56
2023/12/01 15:39:38;;;;;;;28.02;12.38;;;;;;;3.15;77.13;99661.16;8317418;28;20033;-57
2023/12/01 15:43:38;;;;;;;30.05;13.48;;;;;;;3.12;77.15;99667.59;8360811;28;20549;-56
2023/12/01 15:47:39;;;;;;;25.90;11.55;;;;;;;3.07;76.81;99664.41;8356563;28;20406;-55
2023/12/01 15:51:39;;;;;;;28.92;12.10;;;;;;;3.03;77.48;99662.94;8363280;28;20688;-56
2023/12/01 15:55:40;;;;;;;25.50;11.45;;;;;;;3.05;77.71;99661.00;8364931;28;20051;-57
2023/12/01 15:59:41;;;;;;;28.95;11.35;;;;;;;3.02;76.86;99665.72;8375450;28;20132;-57
2023/12/01 16:03:41;;;;;;;30.02;12.88;;;;;;;3.01;76.52;99659.53;8347988;28;20036;-57
2023/12/01 16:07:42;;;;;;;25.95;10.88;;;;;;;3.00;75.69;99663.16;8356525;28;20067;-58
2023/12/01 16:11:42;;;;;;;31.75;12.60;;;;;;;3.06;76.44;99672.53;8355968;28;20082;-58
2023/12/01 16:15:43;;;;;;;25.90;11.85;;;;;;;3.03;75.98;99662.94;8362441;28;20052;-56
2023/12/01 16:19:43;;;;;;;26.98;12.02;;;;;;;3.04;76.27;99663.78;8376484;28;20778;-58
2023/12/01 16:23:44;;;;;;;29.00;13.00;;;;;;;3.09;77.28;99673.16;8360597;28;20110;-59
2023/12/01 16:27:44;;;;;;;32.28;13.13;;;;;;;3.07;77.35;99674.22;8359691;28;20520;-59
2023/12/01 16:31:44;;;;;;;33.75;15.00;;;;;;;3.04;77.47;99680.66;8362911;28;20047;-59
2023/12/01 16:35:45;;;;;;;32.80;14.27;;;;;;;3.08;77.03;99676.78;8377235;28;20044;-58
2023/12/01 16:39:46;;;;;;;33.50;13.45;;;;;;;3.03;77.36;99694.97;8371180;28;20448;-56
2023/12/01 16:43:47;;;;;;;37.35;15.30;;;;;;;3.01;77.16;99691.56;8366665;28;20033;-57
2023/12/01 16:47:47;;;;;;;38.75;14.68;;;;;;;3.03;76.50;99688.78;8360567;28;20041;-56
2023/12/01 16:51:48;;;;;;;37.83;14.20;;;;;;;3.07;76.54;99693.78;8370238;28;20488;-58
2023/12/01 16:55:48;;;;;;;40.53;15.57;;;;;;;3.09;76.28;99694.53;8369656;28;20122;-57
2023/12/01 16:59:49;;;;;;;41.60;14.93;;;;;;;3.10;76.26;99706.91;8357673;28;20036;-57
2023/12/01 17:03:49;;;;;;;36.10;15.73;;;;;;;3.06;76.16;99710.78;8369288;28;20363;-58
2023/12/01 17:07:50;;;;;;;36.35;13.93;;;;;;;3.09;77.37;99715.88;8373074;28;20438;-57
2023/12/01 17:11:50;;;;;;;41.20;15.63;;;;;;;3.05;78.32;99713.56;8374876;28;20090;-57
2023/12/01 17:15:51;;;;;;;40.47;15.63;;;;;;;3.03;77.74;99721.69;8371243;28;20087;-56
2023/12/01 17:19:51;;;;;;;42.88;16.42;;;;;;;2.95;76.90;99718.69;8370364;28;20044;-58
2023/12/01 17:23:52;;;;;;;47.60;15.68;;;;;;;3.00;77.12;99718.38;8370350;28;20486;-58
2023/12/01 17:27:52;;;;;;;40.13;15.25;;;;;;;3.00;77.44;99719.22;8367280;28;20055;-57
2023/12/01 17:31:52;;;;;;;42.25;16.58;;;;;;;2.98;77.15;99718.47;8368920;28;20139;-57
2023/12/01 17:35:53;;;;;;;38.92;15.90;;;;;;;2.96;77.49;99716.91;8368983;28;20033;-57
2023/12/01 17:39:53;;;;;;;43.15;16.10;;;;;;;2.96;77.35;99725.72;8368737;28;20250;-60
2023/12/01 17:43:54;;;;;;;36.83;15.20;;;;;;;3.00;77.42;99727.25;8367593;28;20060;-58
2023/12/01 17:47:55;;;;;;;42.03;17.63;;;;;;;2.96;77.02;99725.72;8370572;28;20044;-59
2023/12/01 17:51:56;;;;;;;39.70;17.42;;;;;;;2.95;77.36;99726.72;8391973;28;20486;-58
2023/12/01 17:55:56;;;;;;;39.33;15.38;;;;;;;2.94;77.36;99726.81;8365567;28;20459;-60
2023/12/01 17:59:57;;;;;;;40.85;15.40;;;;;;;2.94;77.51;99721.47;8387194;28;20121;-59
2023/12/01 18:03:57;;;;;;;39.05;16.25;;;;;;;2.95;78.39;99713.38;8375315;28;20037;-59
2023/12/01 18:07:57;;;;;;;39.80;16.02;;;;;;;3.13;78.26;99721.81;8368500;28;20032;-58
2023/12/01 18:11:58;;;;;;;38.13;15.90;;;;;;;2.95;76.76;99724.03;8356044;28;20041;-59
2023/12/01 18:15:58;;;;;;;42.75;16.27;;;;;;;2.85;76.85;99727.50;8368397;28;20048;-60
2023/12/01 18:19:59;;;;;;;40.83;16.98;;;;;;;2.91;77.56;99722.56;8348707;28;20123;-58
2023/12/01 18:24:02;;;;;;;41.30;15.43;;;;;;;2.85;76.13;99728.34;8367244;28;20118;-59
2023/12/01 18:28:02;;;;;;;31.60;14.98;;;;;;;2.88;76.11;99736.13;8368923;28;20039;-57
2023/12/01 18:32:03;;;;;;;35.72;15.27;;;;;;;2.85;75.55;99741.69;8369674;28;20044;-59
2023/12/01 18:36:04;;;;;;;37.30;14.70;;;;;;;2.86;74.70;99738.06;8369073;28;20255;-57
2023/12/01 18:40:05;;;;;;;33.13;14.38;;;;;;;2.88;74.77;99749.47;8376497;28;20131;-59
2023/12/01 18:44:05;;;;;;;34.70;14.82;;;;;;;2.88;74.67;99744.16;8364072;28;20405;-60
2023/12/01 18:48:06;;;;;;;35.10;14.85;;;;;;;2.90;73.72;99747.53;8372356;28;20079;-58